Time;durP1;ratioP1;P1;durP2;ratioP2;P2;SDS_P1;SDS_P2;PMS_P1;PMS_P2;Temp;Humidity;BMP_temperature;BMP_pressure;BME280_temperature;BME280_humidity;BME280_pressure;Samples;Min_cycle;Max_cycle;Signal;HPM_P1;HPM_P2
2021/11/13 00:03:50;;;;;;;;;;;2.90;99.90;;;;;;8362362;28;19964;-60
2021/11/13 00:07:51;;;;;;;;;;;3.00;99.90;;;;;;8362329;28;20323;-60
2021/11/13 00:11:51;;;;;;;;;;;3.10;99.90;;;;;;8361336;28;19904;-60
2021/11/13 00:15:52;;;;;;;;;;;3.00;99.90;;;;;;8361441;28;19909;-59
2021/11/13 00:19:53;;;;;;;;;;;3.10;99.90;;;;;;8361881;28;19912;-60
2021/11/13 00:23:53;;;;;;;;;;;3.10;99.90;;;;;;8361726;28;19913;-60
2021/11/13 00:27:54;;;;;;;;;;;3.10;99.90;;;;;;8361686;28;19905;-60
2021/11/13 00:31:54;;;;;;;;;;;3.10;99.90;;;;;;8361429;28;19909;-60
2021/11/13 00:35:55;;;;;;;;;;;3.20;99.90;;;;;;8361717;28;20386;-60
2021/11/13 00:39:55;;;;;;;;;;;3.30;99.90;;;;;;8361178;28;19905;-60
2021/11/13 00:43:57;;;;;;;;;;;3.20;99.90;;;;;;8361277;28;19963;-60
2021/11/13 00:47:58;;;;;;;;;;;3.10;99.90;;;;;;8361089;28;20364;-59
2021/11/13 00:51:58;;;;;;;;;;;3.20;99.90;;;;;;8360551;28;19959;-60
2021/11/13 00:55:59;;;;;;;;;;;3.30;99.90;;;;;;8361040;28;19905;-60
2021/11/13 01:00:00;;;;;;;;;;;3.30;99.90;;;;;;8360655;28;20265;-60
2021/11/13 01:04:01;;;;;;;;;;;3.30;99.90;;;;;;8360735;28;19913;-60
2021/11/13 01:08:01;;;;;;;;;;;3.30;99.90;;;;;;8360576;28;19912;-60
2021/11/13 01:12:02;;;;;;;;;;;3.30;99.90;;;;;;8359601;28;19966;-60
2021/11/13 01:16:02;;;;;;;;;;;3.40;99.90;;;;;;8359564;28;20373;-63
2021/11/13 01:20:04;;;;;;;;;;;3.40;99.90;;;;;;8358474;28;20327;-64
2021/11/13 01:24:05;;;;;;;;;;;3.50;99.90;;;;;;8359393;28;20277;-64
2021/11/13 01:28:06;;;;;;;;;;;3.50;99.90;;;;;;8355962;28;19908;-64
2021/11/13 01:32:06;;;;;;;;;;;3.60;99.90;;;;;;8359925;28;19931;-64
2021/11/13 01:36:07;;;;;;;;;;;3.60;99.90;;;;;;8360253;28;19904;-64
2021/11/13 01:40:09;;;;;;;;;;;3.70;99.90;;;;;;8359962;28;19963;-64
2021/11/13 01:44:10;;;;;;;;;;;3.80;99.90;;;;;;8358756;28;20361;-63
2021/11/13 01:48:10;;;;;;;;;;;3.80;99.90;;;;;;8359990;28;19920;-63
2021/11/13 01:52:11;;;;;;;;;;;3.90;99.90;;;;;;8359552;28;20653;-64
2021/11/13 01:56:17;;;;;;;;;;;3.80;99.90;;;;;;8360045;28;20406;-64
2021/11/13 02:00:44;;;;;;;;;;;4.00;99.90;;;;;;8359725;28;20396;-64
2021/11/13 02:04:45;;;;;;;;;;;3.90;99.90;;;;;;8355718;28;19958;-64
2021/11/13 02:08:46;;;;;;;;;;;4.10;99.90;;;;;;8359720;28;20353;-64
2021/11/13 02:12:46;;;;;;;;;;;4.20;99.90;;;;;;8359579;28;20394;-63
2021/11/13 02:16:47;;;;;;;;;;;4.10;99.90;;;;;;8359420;28;19905;-64
2021/11/13 02:20:47;;;;;;;;;;;4.10;99.90;;;;;;8359432;28;19909;-64
2021/11/13 02:24:48;;;;;;;;;;;4.10;99.90;;;;;;8359536;28;20388;-64
2021/11/13 02:28:49;;;;;;;;;;;4.10;99.90;;;;;;8359129;28;20322;-64
2021/11/13 02:32:50;;;;;;;;;;;4.20;99.90;;;;;;8341393;28;19905;-64
2021/11/13 02:36:50;;;;;;;;;;;4.20;99.90;;;;;;8365164;28;19911;-64
2021/11/13 02:40:54;;;;;;;;;;;4.20;99.90;;;;;;8364879;28;19912;-63
2021/11/13 02:44:55;;;;;;;;;;;4.20;99.90;;;;;;8347144;28;19904;-64
2021/11/13 02:48:56;;;;;;;;;;;4.20;99.90;;;;;;8364383;28;19927;-64
2021/11/13 02:52:57;;;;;;;;;;;4.30;99.90;;;;;;8364739;28;19909;-64
2021/11/13 02:56:58;;;;;;;;;;;4.20;99.90;;;;;;8364498;28;19958;-64
2021/11/13 03:01:00;;;;;;;;;;;4.30;99.90;;;;;;8364302;28;19916;-64
2021/11/13 03:05:01;;;;;;;;;;;4.40;99.90;;;;;;8364588;28;19909;-64
2021/11/13 03:09:02;;;;;;;;;;;4.50;99.90;;;;;;8364010;28;20034;-64
2021/11/13 03:13:03;;;;;;;;;;;4.40;99.90;;;;;;8363509;28;19909;-64
2021/11/13 03:17:06;;;;;;;;;;;4.40;99.90;;;;;;8364135;28;20304;-64
2021/11/13 03:21:07;;;;;;;;;;;4.40;99.90;;;;;;8363739;28;19962;-63
2021/11/13 03:25:09;;;;;;;;;;;4.60;99.90;;;;;;8345853;28;19904;-64
2021/11/13 03:29:14;;;;;;;;;;;4.60;99.90;;;;;;8363327;28;20376;-64
2021/11/13 03:33:14;;;;;;;;;;;4.60;99.90;;;;;;8363569;28;19905;-64
2021/11/13 03:37:15;;;;;;;;;;;4.70;99.90;;;;;;8345502;28;20373;-64
2021/11/13 03:41:16;;;;;;;;;;;4.90;99.90;;;;;;8363016;28;19955;-64
2021/11/13 03:45:17;;;;;;;;;;;4.90;99.90;;;;;;8362144;28;19912;-63
2021/11/13 03:49:17;;;;;;;;;;;4.80;99.90;;;;;;8362536;28;19943;-64
2021/11/13 03:53:18;;;;;;;;;;;4.80;99.90;;;;;;8362872;28;20007;-64
2021/11/13 03:57:18;;;;;;;;;;;4.80;99.90;;;;;;8362584;28;19970;-64
2021/11/13 04:01:19;;;;;;;;;;;4.70;99.90;;;;;;8344550;28;19939;-64
2021/11/13 04:05:20;;;;;;;;;;;4.70;99.90;;;;;;8362653;28;20439;-63
2021/11/13 04:09:21;;;;;;;;;;;4.80;99.90;;;;;;8362135;28;19950;-64
2021/11/13 04:13:21;;;;;;;;;;;4.80;99.90;;;;;;8362018;28;19990;-64
2021/11/13 04:17:22;;;;;;;;;;;4.70;99.90;;;;;;8362100;28;20003;-63
2021/11/13 04:21:22;;;;;;;;;;;4.90;99.90;;;;;;8360497;28;20054;-64
2021/11/13 04:25:23;;;;;;;;;;;4.90;99.90;;;;;;8361995;28;20433;-64
2021/11/13 04:29:23;;;;;;;;;;;4.70;99.90;;;;;;8343499;28;19919;-64
2021/11/13 04:33:26;;;;;;;;;;;4.70;99.90;;;;;;8361612;28;19905;-64
2021/11/13 04:37:27;;;;;;;;;;;4.80;99.90;;;;;;8361473;28;20007;-64
2021/11/13 04:41:27;;;;;;;;;;;4.90;99.90;;;;;;8361205;28;19909;-64
2021/11/13 04:45:27;;;;;;;;;;;4.90;99.90;;;;;;8361481;28;19958;-65
2021/11/13 04:49:28;;;;;;;;;;;5.00;99.90;;;;;;8360690;28;19917;-64
2021/11/13 04:53:28;;;;;;;;;;;4.70;99.90;;;;;;8359705;28;19908;-64
2021/11/13 04:57:29;;;;;;;;;;;4.80;99.90;;;;;;8360566;28;19927;-63
2021/11/13 05:01:30;;;;;;;;;;;4.90;99.90;;;;;;8359323;28;19952;-63
2021/11/13 05:05:30;;;;;;;;;;;4.70;99.90;;;;;;8355765;28;20035;-63
2021/11/13 05:09:31;;;;;;;;;;;4.70;99.90;;;;;;8338940;28;20398;-64
2021/11/13 05:13:31;;;;;;;;;;;4.60;99.90;;;;;;8357787;28;19905;-64
2021/11/13 05:17:32;;;;;;;;;;;4.70;99.90;;;;;;8358210;28;20160;-63
2021/11/13 05:21:32;;;;;;;;;;;4.60;99.90;;;;;;8340018;28;20301;-64
2021/11/13 05:25:33;;;;;;;;;;;4.60;99.90;;;;;;8360474;28;19916;-64
2021/11/13 05:29:33;;;;;;;;;;;4.50;99.90;;;;;;8359863;28;19908;-64
2021/11/13 05:33:34;;;;;;;;;;;4.50;99.90;;;;;;8360396;28;20427;-65
2021/11/13 05:37:35;;;;;;;;;;;4.60;99.90;;;;;;8360245;28;19984;-64
2021/11/13 05:41:35;;;;;;;;;;;4.70;99.90;;;;;;8341943;28;20392;-64
2021/11/13 05:45:36;;;;;;;;;;;4.70;99.90;;;;;;8360205;28;20527;-64
2021/11/13 05:49:36;;;;;;;;;;;4.70;99.90;;;;;;8389198;22;20232;-63
2021/11/13 05:53:37;;;;;;;;;;;4.60;99.90;;;;;;8426213;28;20317;-64
2021/11/13 05:57:38;;;;;;;;;;;4.70;99.90;;;;;;8426657;28;20007;-63
2021/11/13 06:01:38;;;;;;;;;;;4.70;99.90;;;;;;8405970;28;19916;-64
2021/11/13 06:05:40;;;;;;;;;;;4.70;99.90;;;;;;8393136;28;19904;-64
2021/11/13 06:09:40;;;;;;;;;;;4.70;99.90;;;;;;8376568;28;19912;-63
2021/11/13 06:13:41;;;;;;;;;;;4.60;99.90;;;;;;8397623;28;19905;-63
2021/11/13 06:17:41;;;;;;;;;;;4.70;99.90;;;;;;8398394;28;19999;-64
2021/11/13 06:21:42;;;;;;;;;;;4.70;99.90;;;;;;8380668;28;19951;-63
2021/11/13 06:25:42;;;;;;;;;;;4.60;99.90;;;;;;8398945;28;19904;-63
2021/11/13 06:29:43;;;;;;;;;;;4.60;99.90;;;;;;8380690;28;19991;-64
2021/11/13 06:33:44;;;;;;;;;;;4.60;99.90;;;;;;8380390;28;20033;-64
2021/11/13 06:37:44;;;;;;;;;;;4.70;99.90;;;;;;8397209;28;19912;-63
2021/11/13 06:41:45;;;;;;;;;;;4.60;99.90;;;;;;8397323;28;19920;-63
2021/11/13 06:45:46;;;;;;;;;;;4.70;99.90;;;;;;8398293;28;19915;-64
2021/11/13 06:49:46;;;;;;;;;;;4.80;99.90;;;;;;8379603;28;19916;-63
2021/11/13 06:53:47;;;;;;;;;;;4.80;99.90;;;;;;8396120;28;20050;-63
2021/11/13 06:57:47;;;;;;;;;;;4.80;99.90;;;;;;8396091;28;19912;-64
2021/11/13 07:01:48;;;;;;;;;;;4.80;99.90;;;;;;8396703;28;19916;-64
2021/11/13 07:05:48;;;;;;;;;;;4.90;99.90;;;;;;8377834;28;19908;-64
2021/11/13 07:09:48;;;;;;;;;;;4.90;99.90;;;;;;8395661;28;20399;-64
2021/11/13 07:13:49;;;;;;;;;;;5.20;99.90;;;;;;8396332;28;19908;-63
2021/11/13 07:17:50;;;;;;;;;;;5.30;99.90;;;;;;8393900;28;19956;-62
2021/11/13 07:21:50;;;;;;;;;;;5.30;99.90;;;;;;8394832;28;19923;-62
2021/11/13 07:25:51;;;;;;;;;;;5.20;99.90;;;;;;8395399;28;19916;-63
2021/11/13 07:30:00;;;;;;;;;;;5.20;99.90;;;;;;8395707;28;19912;-63
2021/11/13 07:34:00;;;;;;;;;;;5.20;99.90;;;;;;8396383;28;19904;-63
2021/11/13 07:38:01;;;;;;;;;;;5.20;99.90;;;;;;8396474;28;20288;-63
2021/11/13 07:42:03;;;;;;;;;;;5.20;99.90;;;;;;8395617;28;20445;-63
2021/11/13 07:46:03;;;;;;;;;;;5.50;99.90;;;;;;8394619;28;19908;-63
2021/11/13 07:50:04;;;;;;;;;;;5.40;99.90;;;;;;8393851;28;19920;-63
2021/11/13 07:54:04;;;;;;;;;;;5.60;99.90;;;;;;8393202;28;19908;-63
2021/11/13 07:58:05;;;;;;;;;;;5.70;99.90;;;;;;8386603;28;19912;-63
2021/11/13 08:02:05;;;;;;;;;;;5.90;99.90;;;;;;8390605;28;19920;-63
2021/11/13 08:06:06;;;;;;;;;;;6.00;99.90;;;;;;8394525;28;19904;-62
2021/11/13 08:10:07;;;;;;;;;;;6.00;99.90;;;;;;8392232;28;20018;-63
2021/11/13 08:14:07;;;;;;;;;;;6.00;99.90;;;;;;8392789;28;19904;-63
2021/11/13 08:18:09;;;;;;;;;;;6.10;99.90;;;;;;8392180;28;19958;-63
2021/11/13 08:22:09;;;;;;;;;;;6.30;99.90;;;;;;8392151;28;19915;-62
2021/11/13 08:26:10;;;;;;;;;;;6.50;99.90;;;;;;8379901;28;20364;-63
2021/11/13 08:30:11;;;;;;;;;;;6.80;99.90;;;;;;8392689;28;19958;-62
2021/11/13 08:34:11;;;;;;;;;;;6.80;99.90;;;;;;8391246;28;20092;-63
2021/11/13 08:38:13;;;;;;;;;;;6.80;99.90;;;;;;8392776;28;20363;-63
2021/11/13 08:42:14;;;;;;;;;;;6.80;99.90;;;;;;8392442;28;19912;-63
2021/11/13 08:46:15;;;;;;;;;;;7.00;99.90;;;;;;8391928;28;19995;-62
2021/11/13 08:50:23;;;;;;;;;;;7.00;99.90;;;;;;8391885;28;19916;-62
2021/11/13 08:54:23;;;;;;;;;;;6.80;99.90;;;;;;8393333;28;19904;-63
2021/11/13 08:58:24;;;;;;;;;;;6.60;99.90;;;;;;8389224;28;20476;-63
2021/11/13 09:02:25;;;;;;;;;;;6.60;99.90;;;;;;8390678;28;19915;-63
2021/11/13 09:06:29;;;;;;;;;;;6.60;99.90;;;;;;8390692;28;20241;-63
2021/11/13 09:10:31;;;;;;;;;;;6.60;99.90;;;;;;8390306;28;20356;-63
2021/11/13 09:14:32;;;;;;;;;;;6.70;99.90;;;;;;8391402;28;20372;-64
2021/11/13 09:18:33;;;;;;;;;;;6.70;99.90;;;;;;8373442;28;19915;-63
2021/11/13 09:22:34;;;;;;;;;;;6.80;99.90;;;;;;8392840;28;19912;-63
2021/11/13 09:26:34;;;;;;;;;;;6.90;99.90;;;;;;8391407;28;19908;-63
2021/11/13 09:30:36;;;;;;;;;;;7.10;99.90;;;;;;8392347;28;20002;-63
2021/11/13 09:34:36;;;;;;;;;;;7.20;99.90;;;;;;8374583;28;19915;-63
2021/11/13 09:38:40;;;;;;;;;;;7.00;99.90;;;;;;8374665;28;20282;-63
2021/11/13 09:42:42;;;;;;;;;;;7.00;99.90;;;;;;8374940;28;19908;-63
2021/11/13 09:46:42;;;;;;;;;;;7.10;99.90;;;;;;8398646;28;19908;-63
2021/11/13 09:50:46;;;;;;;;;;;7.10;99.90;;;;;;8397474;28;20342;-63
2021/11/13 09:54:46;;;;;;;;;;;6.80;99.90;;;;;;8399266;28;19904;-63
2021/11/13 09:58:47;;;;;;;;;;;6.60;99.90;;;;;;8397549;28;19904;-63
2021/11/13 10:02:48;;;;;;;;;;;6.60;99.90;;;;;;8398472;28;20418;-63
2021/11/13 10:06:49;;;;;;;;;;;6.70;99.90;;;;;;8398777;28;19915;-63
2021/11/13 10:10:53;;;;;;;;;;;6.60;99.90;;;;;;8377494;28;19991;-63
2021/11/13 10:14:54;;;;;;;;;;;6.90;99.90;;;;;;8396999;28;19908;-63
2021/11/13 10:18:54;;;;;;;;;;;6.80;99.90;;;;;;8397169;28;20283;-63
2021/11/13 10:22:55;;;;;;;;;;;6.80;99.90;;;;;;8397017;28;19934;-63
2021/11/13 10:26:57;;;;;;;;;;;7.00;99.90;;;;;;8398150;28;19908;-63
2021/11/13 10:31:06;;;;;;;;;;;7.10;99.90;;;;;;8396986;28;19909;-63
2021/11/13 10:35:06;;;;;;;;;;;7.20;99.90;;;;;;8397156;28;20194;-64
2021/11/13 10:39:07;;;;;;;;;;;7.20;99.90;;;;;;8395792;28;19908;-63
2021/11/13 10:43:07;;;;;;;;;;;7.00;99.90;;;;;;8394011;28;20279;-63
2021/11/13 10:47:09;;;;;;;;;;;7.10;99.90;;;;;;8396272;28;20043;-63
2021/11/13 10:51:11;;;;;;;;;;;7.20;99.90;;;;;;8393135;28;20292;-63
2021/11/13 10:55:17;;;;;;;;;;;7.10;99.90;;;;;;8393908;28;19909;-63
2021/11/13 10:59:22;;;;;;;;;;;7.20;99.90;;;;;;8376325;28;20007;-63
2021/11/13 11:03:28;;;;;;;;;;;7.30;99.90;;;;;;8393611;28;19970;-63
2021/11/13 11:07:29;;;;;;;;;;;7.30;99.90;;;;;;8395505;28;19909;-63
2021/11/13 11:11:31;;;;;;;;;;;7.50;99.90;;;;;;8395378;28;19908;-63
2021/11/13 11:15:39;;;;;;;;;;;7.20;99.90;;;;;;8378058;28;19970;-63
2021/11/13 11:19:40;;;;;;;;;;;7.30;99.90;;;;;;8395471;28;20253;-63
2021/11/13 11:23:40;;;;;;;;;;;7.20;99.90;;;;;;8395089;28;19921;-63
2021/11/13 11:27:42;;;;;;;;;;;7.30;99.90;;;;;;8394687;28;20359;-63
2021/11/13 11:31:45;;;;;;;;;;;7.20;99.90;;;;;;8394316;28;19908;-63
2021/11/13 11:35:46;;;;;;;;;;;7.50;99.90;;;;;;8393691;28;19999;-63
2021/11/13 11:39:48;;;;;;;;;;;7.50;99.90;;;;;;8376524;28;19908;-63
2021/11/13 11:43:49;;;;;;;;;;;7.50;99.90;;;;;;8392344;28;19958;-63
2021/11/13 11:47:50;;;;;;;;;;;7.60;99.90;;;;;;8394066;28;19940;-63
2021/11/13 11:51:51;;;;;;;;;;;7.50;99.90;;;;;;8388579;22;20419;-63
2021/11/13 11:55:51;;;;;;;;;;;7.60;99.90;;;;;;8357136;28;19908;-63
2021/11/13 11:59:54;;;;;;;;;;;7.50;99.90;;;;;;8356319;28;19956;-63
2021/11/13 12:04:08;;;;;;;;;;;7.50;99.90;;;;;;8346363;28;19924;-62
2021/11/13 12:08:18;;;;;;;;;;;7.50;99.90;;;;;;8356539;28;19909;-62
2021/11/13 12:12:20;;;;;;;;;;;7.50;99.90;;;;;;8356906;28;20361;-63
2021/11/13 12:16:23;;;;;;;;;;;7.50;99.90;;;;;;8343189;28;19905;-63
2021/11/13 12:20:26;;;;;;;;;;;7.80;99.90;;;;;;8359322;28;19908;-62
2021/11/13 12:24:26;;;;;;;;;;;7.90;99.90;;;;;;8357703;28;20000;-63
2021/11/13 12:28:28;;;;;;;;;;;8.00;99.90;;;;;;8353369;28;19909;-63
2021/11/13 12:32:31;;;;;;;;;;;8.10;99.90;;;;;;8355124;28;19958;-63
2021/11/13 12:36:50;;;;;;;;;;;8.20;99.90;;;;;;8360211;28;19905;-63
2021/11/13 12:41:08;;;;;;;;;;;8.30;99.90;;;;;;8421182;28;19916;-63
2021/11/13 12:45:12;;;;;;;;;;;8.70;99.90;;;;;;8419623;28;20049;-63
2021/11/13 12:49:18;;;;;;;;;;;8.80;99.90;;;;;;8420774;28;19998;-63
2021/11/13 12:53:19;;;;;;;;;;;9.00;99.90;;;;;;8395396;28;20375;-63
2021/11/13 12:57:28;;;;;;;;;;;9.10;99.90;;;;;;8368523;28;19917;-63
2021/11/13 13:01:29;;;;;;;;;;;9.10;99.90;;;;;;8370301;28;19920;-63
2021/11/13 13:05:29;;;;;;;;;;;8.80;99.90;;;;;;8374579;28;19908;-63
2021/11/13 13:09:30;;;;;;;;;;;8.40;99.90;;;;;;8370902;28;19951;-63
2021/11/13 13:13:32;;;;;;;;;;;8.40;99.90;;;;;;8369850;28;19995;-63
2021/11/13 13:17:34;;;;;;;;;;;8.30;99.90;;;;;;8369184;28;19924;-63
2021/11/13 13:21:34;;;;;;;;;;;8.20;99.90;;;;;;8369661;28;19913;-64
2021/11/13 13:25:36;;;;;;;;;;;8.20;99.90;;;;;;8368988;28;20025;-64
2021/11/13 13:29:37;;;;;;;;;;;8.20;99.90;;;;;;8367812;28;19956;-63
2021/11/13 13:33:39;;;;;;;;;;;8.10;99.90;;;;;;8355664;28;19920;-63
2021/11/13 13:37:52;;;;;;;;;;;8.10;99.90;;;;;;8372095;28;19916;-63
2021/11/13 13:41:52;;;;;;;;;;;8.10;99.90;;;;;;8402228;28;19913;-63
2021/11/13 13:45:58;;;;;;;;;;;8.30;99.90;;;;;;8402678;28;19919;-64
2021/11/13 13:49:59;;;;;;;;;;;8.30;99.90;;;;;;8394447;28;19992;-63
2021/11/13 13:54:15;;;;;;;;;;;8.40;99.90;;;;;;8392284;28;20055;-63
2021/11/13 13:58:16;;;;;;;;;;;8.20;99.90;;;;;;8381081;28;19970;-63
2021/11/13 14:02:21;;;;;;;;;;;8.40;99.90;;;;;;8389247;28;19916;-63
2021/11/13 14:06:24;;;;;;;;;;;8.50;99.90;;;;;;8395325;28;19931;-63
2021/11/13 14:10:25;;;;;;;;;;;8.50;99.90;;;;;;8395758;28;19912;-63
2021/11/13 14:14:26;;;;;;;;;;;8.30;99.90;;;;;;8395940;28;19916;-63
2021/11/13 14:18:28;;;;;;;;;;;8.30;99.90;;;;;;8397107;28;20282;-63
2021/11/13 14:22:29;;;;;;;;;;;8.20;99.90;;;;;;8397215;28;19908;-63
2021/11/13 14:26:30;;;;;;;;;;;8.40;99.90;;;;;;8397727;28;20301;-63
2021/11/13 14:30:41;;;;;;;;;;;8.30;99.90;;;;;;8397162;28;19909;-63
2021/11/13 14:34:42;;;;;;;;;;;8.30;99.90;;;;;;8397337;28;19908;-63
2021/11/13 14:38:52;;;;;;;;;;;8.30;99.90;;;;;;8396932;28;20362;-63
2021/11/13 14:42:53;;;;;;;;;;;8.20;99.90;;;;;;8395975;28;20345;-63
2021/11/13 14:46:54;;;;;;;;;;;8.10;99.90;;;;;;8395723;28;19954;-63
2021/11/13 14:50:55;;;;;;;;;;;8.20;99.90;;;;;;8396680;28;19919;-63
2021/11/13 14:55:00;;;;;;;;;;;8.20;99.90;;;;;;8396622;28;19908;-63
2021/11/13 14:59:00;;;;;;;;;;;8.10;99.90;;;;;;8396161;28;19951;-63
2021/11/13 15:03:07;;;;;;;;;;;8.20;99.90;;;;;;8394072;28;20297;-63
2021/11/13 15:07:09;;;;;;;;;;;8.30;99.90;;;;;;8396233;28;19951;-63
2021/11/13 15:11:11;;;;;;;;;;;8.20;99.90;;;;;;8395996;28;19915;-63
2021/11/13 15:15:12;;;;;;;;;;;8.20;99.90;;;;;;8396130;28;20378;-63
2021/11/13 15:19:14;;;;;;;;;;;8.20;99.90;;;;;;8395841;28;20415;-63
2021/11/13 15:23:20;;;;;;;;;;;8.10;99.90;;;;;;8395440;28;20353;-63
2021/11/13 15:27:23;;;;;;;;;;;8.30;99.90;;;;;;8395682;28;19909;-63
2021/11/13 15:31:30;;;;;;;;;;;8.20;99.90;;;;;;8395367;28;19909;-63
2021/11/13 15:35:34;;;;;;;;;;;8.10;99.90;;;;;;8395538;28;19915;-63
2021/11/13 15:39:35;;;;;;;;;;;8.00;99.90;;;;;;8394713;28;20375;-63
2021/11/13 15:43:35;;;;;;;;;;;8.10;99.90;;;;;;8395030;28;19967;-63
2021/11/13 15:47:36;;;;;;;;;;;8.10;99.90;;;;;;8394885;28;19913;-63
2021/11/13 15:51:38;;;;;;;;;;;8.10;99.90;;;;;;8394812;28;19908;-63
2021/11/13 15:55:38;;;;;;;;;;;8.00;99.90;;;;;;8393594;28;19909;-63
2021/11/13 15:59:39;;;;;;;;;;;8.00;99.90;;;;;;8394311;28;19912;-63
2021/11/13 16:03:39;;;;;;;;;;;8.00;99.90;;;;;;8394588;28;20007;-63
2021/11/13 16:07:41;;;;;;;;;;;8.00;99.90;;;;;;8394498;28;19909;-63
2021/11/13 16:11:41;;;;;;;;;;;8.00;99.90;;;;;;8394182;28;19931;-63
2021/11/13 16:15:42;;;;;;;;;;;7.90;99.90;;;;;;8394231;28;19909;-63
2021/11/13 16:19:42;;;;;;;;;;;7.90;99.90;;;;;;8397756;28;19912;-63
2021/11/13 16:23:43;;;;;;;;;;;7.90;99.90;;;;;;8389141;28;19962;-63
2021/11/13 16:27:46;;;;;;;;;;;7.80;99.90;;;;;;8394055;28;19908;-63
2021/11/13 16:31:47;;;;;;;;;;;7.90;99.90;;;;;;8392648;28;19908;-63
2021/11/13 16:35:48;;;;;;;;;;;7.90;99.90;;;;;;8394058;28;19908;-63
2021/11/13 16:39:49;;;;;;;;;;;7.90;99.90;;;;;;8393479;28;19917;-63
2021/11/13 16:43:51;;;;;;;;;;;7.80;99.90;;;;;;8393958;28;19916;-63
2021/11/13 16:47:52;;;;;;;;;;;7.90;99.90;;;;;;8390449;28;20402;-63
2021/11/13 16:51:52;;;;;;;;;;;7.90;99.90;;;;;;8386213;28;19913;-65
2021/11/13 16:55:56;;;;;;;;;;;7.90;99.90;;;;;;8389600;28;19916;-65
2021/11/13 16:59:57;;;;;;;;;;;8.00;99.90;;;;;;8399253;28;19981;-65
2021/11/13 17:04:00;;;;;;;;;;;8.00;99.90;;;;;;8415462;28;19919;-64
2021/11/13 17:08:01;;;;;;;;;;;8.10;99.90;;;;;;8419692;28;19913;-65
2021/11/13 17:12:01;;;;;;;;;;;8.00;99.90;;;;;;8422857;28;19923;-65
2021/11/13 17:16:05;;;;;;;;;;;7.90;99.90;;;;;;8423202;28;19935;-65
2021/11/13 17:20:06;;;;;;;;;;;8.00;99.90;;;;;;8421283;28;19920;-65
2021/11/13 17:24:06;;;;;;;;;;;8.00;99.90;;;;;;8421237;28;20381;-65
2021/11/13 17:28:07;;;;;;;;;;;7.80;99.90;;;;;;8406495;28;19916;-65
2021/11/13 17:32:08;;;;;;;;;;;7.80;99.90;;;;;;8424802;28;19920;-65
2021/11/13 17:36:12;;;;;;;;;;;7.70;99.90;;;;;;8430921;28;19908;-65
2021/11/13 17:40:15;;;;;;;;;;;7.90;99.90;;;;;;8431320;28;19916;-65
2021/11/13 17:44:15;;;;;;;;;;;8.00;99.90;;;;;;8430426;28;20364;-65
2021/11/13 17:48:16;;;;;;;;;;;8.00;99.90;;;;;;8393709;28;19944;-65
2021/11/13 17:52:17;;;;;;;;;;;8.00;99.90;;;;;;8392549;28;19916;-65
2021/11/13 17:56:17;;;;;;;;;;;7.90;99.90;;;;;;8391254;28;19912;-65
2021/11/13 18:00:20;;;;;;;;;;;7.90;99.90;;;;;;8392041;28;19920;-65
2021/11/13 18:04:21;;;;;;;;;;;7.90;99.90;;;;;;8391483;28;19912;-65
2021/11/13 18:08:22;;;;;;;;;;;7.80;99.90;;;;;;8390110;28;19947;-65
2021/11/13 18:12:22;;;;;;;;;;;7.80;99.90;;;;;;8393865;28;19919;-65
2021/11/13 18:16:23;;;;;;;;;;;7.80;99.90;;;;;;8393557;28;19913;-65
2021/11/13 18:20:25;;;;;;;;;;;7.90;99.90;;;;;;8391831;28;19917;-65
2021/11/13 18:24:25;;;;;;;;;;;7.90;99.90;;;;;;8415250;23;19924;-64
2021/11/13 18:28:26;;;;;;;;;;;7.80;99.90;;;;;;8391122;28;19912;-64
2021/11/13 18:32:27;;;;;;;;;;;7.90;99.90;;;;;;8395459;28;19920;-64
2021/11/13 18:36:27;;;;;;;;;;;7.90;99.90;;;;;;8392617;28;19912;-64
2021/11/13 18:40:28;;;;;;;;;;;7.90;99.90;;;;;;8384552;28;19921;-65
2021/11/13 18:44:28;;;;;;;;;;;7.80;99.90;;;;;;8363843;28;20007;-64
2021/11/13 18:48:29;;;;;;;;;;;7.90;99.90;;;;;;8363637;28;20027;-64
2021/11/13 18:52:29;;;;;;;;;;;8.00;99.90;;;;;;8372870;28;19950;-64
2021/11/13 18:56:30;;;;;;;;;;;7.90;99.90;;;;;;8395573;28;19917;-64
2021/11/13 19:00:31;;;;;;;;;;;7.90;99.90;;;;;;8387321;28;20404;-64
2021/11/13 19:04:32;;;;;;;;;;;8.00;99.90;;;;;;8390930;28;19955;-65
2021/11/13 19:08:33;;;;;;;;;;;8.00;99.90;;;;;;8394189;28;20318;-64
2021/11/13 19:12:34;;;;;;;;;;;7.90;99.90;;;;;;8374085;28;19913;-64
2021/11/13 19:16:35;;;;;;;;;;;8.00;99.90;;;;;;8378120;28;19916;-64
2021/11/13 19:20:36;;;;;;;;;;;8.00;99.90;;;;;;8384964;28;20290;-64
2021/11/13 19:24:37;;;;;;;;;;;7.90;99.90;;;;;;8387442;28;20014;-64
2021/11/13 19:28:37;;;;;;;;;;;7.90;99.90;;;;;;8377484;28;19916;-63
2021/11/13 19:32:38;;;;;;;;;;;8.00;99.90;;;;;;8356765;28;20386;-64
2021/11/13 19:36:38;;;;;;;;;;;8.00;99.90;;;;;;8374671;28;20336;-64
2021/11/13 19:40:39;;;;;;;;;;;7.80;99.90;;;;;;8378743;28;19924;-64
2021/11/13 19:44:40;;;;;;;;;;;7.80;99.90;;;;;;8375993;28;19916;-63
2021/11/13 19:48:40;;;;;;;;;;;7.90;99.90;;;;;;8372813;28;19917;-64
2021/11/13 19:52:41;;;;;;;;;;;7.90;99.90;;;;;;8374028;28;19919;-64
2021/11/13 19:56:41;;;;;;;;;;;8.00;99.90;;;;;;8373572;28;19913;-64
2021/11/13 20:00:42;;;;;;;;;;;8.00;99.90;;;;;;8372919;28;19917;-64
2021/11/13 20:04:43;;;;;;;;;;;8.00;99.90;;;;;;8373273;28;20008;-64
2021/11/13 20:08:43;;;;;;;;;;;8.00;99.90;;;;;;8372853;28;19962;-64
2021/11/13 20:12:44;;;;;;;;;;;8.00;99.90;;;;;;8374668;28;19916;-64
2021/11/13 20:16:45;;;;;;;;;;;8.00;99.90;;;;;;8375943;28;20007;-64
2021/11/13 20:20:46;;;;;;;;;;;8.00;99.90;;;;;;8375812;28;20048;-64
2021/11/13 20:24:46;;;;;;;;;;;8.00;99.90;;;;;;8373867;28;19921;-64
2021/11/13 20:28:48;;;;;;;;;;;8.10;99.90;;;;;;8370694;28;19913;-63
2021/11/13 20:32:48;;;;;;;;;;;8.00;99.90;;;;;;8355107;28;20656;-64
2021/11/13 20:36:49;;;;;;;;;;;8.00;99.90;;;;;;8374413;28;19917;-63
2021/11/13 20:40:51;;;;;;;;;;;8.10;99.90;;;;;;8379687;28;20361;-64
2021/11/13 20:44:52;;;;;;;;;;;8.00;99.90;;;;;;8364607;28;20012;-64
2021/11/13 20:48:54;;;;;;;;;;;8.10;99.90;;;;;;8346412;28;20074;-64
2021/11/13 20:52:54;;;;;;;;;;;8.00;99.90;;;;;;8375667;28;19916;-64
2021/11/13 20:56:56;;;;;;;;;;;8.10;99.90;;;;;;8383460;28;19912;-64
2021/11/13 21:00:56;;;;;;;;;;;8.10;99.90;;;;;;8388867;28;20429;-63
2021/11/13 21:04:57;;;;;;;;;;;7.90;99.90;;;;;;8382432;28;19912;-64
2021/11/13 21:08:58;;;;;;;;;;;7.90;99.90;;;;;;8366704;28;20007;-64
2021/11/13 21:12:58;;;;;;;;;;;7.80;99.90;;;;;;8389299;28;19921;-64
2021/11/13 21:16:59;;;;;;;;;;;7.80;99.90;;;;;;8392941;28;19923;-64
2021/11/13 21:21:00;;;;;;;;;;;7.70;99.90;;;;;;8393149;28;20668;-64
2021/11/13 21:25:00;;;;;;;;;;;7.70;99.90;;;;;;8373302;28;19924;-63
2021/11/13 21:29:04;;;;;;;;;;;7.70;99.90;;;;;;8375368;28;20314;-63
2021/11/13 21:33:04;;;;;;;;;;;7.50;99.90;;;;;;8387329;28;20350;-64
2021/11/13 21:37:05;;;;;;;;;;;7.40;99.90;;;;;;8384168;28;19955;-64
2021/11/13 21:41:05;;;;;;;;;;;7.20;99.90;;;;;;8361979;28;19978;-65
2021/11/13 21:45:07;;;;;;;;;;;7.10;99.90;;;;;;8372088;28;19962;-65
2021/11/13 21:49:09;;;;;;;;;;;6.90;99.90;;;;;;8366030;28;19976;-64
2021/11/13 21:53:10;;;;;;;;;;;7.00;99.90;;;;;;8369725;28;19920;-64
2021/11/13 21:57:10;;;;;;;;;;;7.10;99.90;;;;;;8372777;28;19928;-64
2021/11/13 22:01:11;;;;;;;;;;;7.20;99.90;;;;;;8361049;28;19986;-64
2021/11/13 22:05:11;;;;;;;;;;;7.20;99.90;;;;;;8366238;28;20024;-64
2021/11/13 22:09:12;;;;;;;;;;;7.30;99.90;;;;;;8377449;28;19998;-64
2021/11/13 22:13:14;;;;;;;;;;;7.30;99.90;;;;;;8374195;28;19962;-64
2021/11/13 22:17:16;;;;;;;;;;;7.30;99.90;;;;;;8379711;28;19922;-64
2021/11/13 22:21:17;;;;;;;;;;;7.50;99.90;;;;;;8376013;28;19999;-64
2021/11/13 22:25:18;;;;;;;;;;;7.40;99.90;;;;;;8362574;28;19917;-64
2021/11/13 22:29:19;;;;;;;;;;;7.50;99.90;;;;;;8371309;28;19916;-64
2021/11/13 22:33:20;;;;;;;;;;;7.50;99.90;;;;;;8364501;28;19908;-64
2021/11/13 22:37:20;;;;;;;;;;;7.50;99.90;;;;;;8364122;28;19916;-64
2021/11/13 22:41:21;;;;;;;;;;;7.40;99.90;;;;;;8364037;28;19909;-65
2021/11/13 22:45:22;;;;;;;;;;;7.30;99.90;;;;;;8363969;28;19962;-64
2021/11/13 22:49:23;;;;;;;;;;;7.30;99.90;;;;;;8363496;28;19915;-64
2021/11/13 22:53:24;;;;;;;;;;;7.50;99.90;;;;;;8363859;28;19909;-64
2021/11/13 22:57:24;;;;;;;;;;;7.30;99.90;;;;;;8372238;28;19915;-64
2021/11/13 23:01:28;;;;;;;;;;;7.30;99.90;;;;;;8396670;28;19944;-64
2021/11/13 23:05:29;;;;;;;;;;;7.20;99.90;;;;;;8396160;28;19978;-65
2021/11/13 23:09:30;;;;;;;;;;;7.20;99.90;;;;;;8396068;28;19913;-64
2021/11/13 23:13:31;;;;;;;;;;;7.40;99.90;;;;;;8396185;28;19915;-64
2021/11/13 23:17:31;;;;;;;;;;;7.30;99.90;;;;;;8396043;28;20329;-64
2021/11/13 23:21:35;;;;;;;;;;;7.30;99.90;;;;;;8395373;28;19909;-63
2021/11/13 23:25:36;;;;;;;;;;;7.30;99.90;;;;;;8395336;28;19923;-64
2021/11/13 23:29:37;;;;;;;;;;;7.20;99.90;;;;;;8395410;28;19931;-63
2021/11/13 23:33:38;;;;;;;;;;;7.20;99.90;;;;;;8395556;28;19913;-64
2021/11/13 23:37:38;;;;;;;;;;;7.10;99.90;;;;;;8367576;28;19965;-64
2021/11/13 23:41:39;;;;;;;;;;;7.10;99.90;;;;;;8394689;28;19912;-65
2021/11/13 23:45:40;;;;;;;;;;;7.30;99.90;;;;;;8383341;28;19912;-65
2021/11/13 23:49:41;;;;;;;;;;;7.20;99.90;;;;;;8373572;28;19920;-64